Kezdőlap
METAR-TAF:

METAR-TAF

Repülőterek :

Grand Marais, Minnesota, Amerikai Egyesült Államok

földrajzi szélesség: 47-50-18N, földrajzi hosszúság: 090-22-59W, magasság: 548 m

Jelenlegi meteorológiai megfigyelések

A jelentés 26 perccel ezelõtt készült, 23:35 UTC
Délnyugati szél 6 kt
Hőmérséklet 25°C
Páratartalom 32%
Légköri nyomás 1017 hPa
Látótávolság: 16.1 km
Derült ég

METAR: KCKC 122335Z AUTO 23006KT 10SM CLR 25/07 A3002 RMK AO2

Idő: 19:01 (00:01 UTC)


TAF: hiányzik

Meteorológiai megfigyelések és előrejelzések több, mint 4000 repülőtéren (METAR és TAF jelentéseket).

A térképen piros és sárga pontok jelzik az elérhető meteorológiai állomásokat.

Mozgassa az egeret a pont fölött, hogy megjelenjen az állomás neve.

Azután kattintson az időjárási megfigyelések és előrejelzések megtekintéséhez.

A térkép megváltoztatása: kattintson a fekete keresztel jelölt zöld gombra ráközelítéshez, a vonallal jelölt zöld gombra távolításhoz, vagy a zöld nyilakra a szomszédos térképek eléréséhez.


METAR-TAF: